sensor_id;sensor_type;location;lat;lon;timestamp;P1;durP1;ratioP1;P2;durP2;ratioP2
4389;SDS011;2209;48.982;8.406;2023-02-28T00:00:34;4.73;;;3.10;;
4389;SDS011;2209;48.982;8.406;2023-02-28T00:02:57;3.17;;;2.97;;
4389;SDS011;2209;48.982;8.406;2023-02-28T00:05:20;4.00;;;3.60;;
4389;SDS011;2209;48.982;8.406;2023-02-28T00:07:45;4.00;;;3.70;;
4389;SDS011;2209;48.982;8.406;2023-02-28T00:10:09;3.33;;;3.03;;
4389;SDS011;2209;48.982;8.406;2023-02-28T00:12:32;4.50;;;3.03;;
4389;SDS011;2209;48.982;8.406;2023-02-28T00:14:54;3.10;;;2.90;;
4389;SDS011;2209;48.982;8.406;2023-02-28T00:17:17;5.70;;;3.73;;
4389;SDS011;2209;48.982;8.406;2023-02-28T00:19:41;3.87;;;3.30;;
4389;SDS011;2209;48.982;8.406;2023-02-28T00:22:03;3.87;;;3.50;;
4389;SDS011;2209;48.982;8.406;2023-02-28T00:24:27;3.33;;;3.03;;
4389;SDS011;2209;48.982;8.406;2023-02-28T00:26:49;4.00;;;3.67;;
4389;SDS011;2209;48.982;8.406;2023-02-28T00:29:11;4.27;;;3.83;;
4389;SDS011;2209;48.982;8.406;2023-02-28T00:31:33;4.03;;;3.57;;
4389;SDS011;2209;48.982;8.406;2023-02-28T00:33:55;3.67;;;3.47;;
4389;SDS011;2209;48.982;8.406;2023-02-28T00:36:17;3.70;;;3.37;;
4389;SDS011;2209;48.982;8.406;2023-02-28T00:38:39;3.80;;;3.50;;
4389;SDS011;2209;48.982;8.406;2023-02-28T00:41:03;4.10;;;3.70;;
4389;SDS011;2209;48.982;8.406;2023-02-28T00:43:26;6.93;;;4.20;;
4389;SDS011;2209;48.982;8.406;2023-02-28T00:45:48;4.07;;;3.73;;
4389;SDS011;2209;48.982;8.406;2023-02-28T00:48:10;4.00;;;3.67;;
4389;SDS011;2209;48.982;8.406;2023-02-28T00:50:32;3.53;;;3.23;;
4389;SDS011;2209;48.982;8.406;2023-02-28T00:52:54;6.37;;;3.60;;
4389;SDS011;2209;48.982;8.406;2023-02-28T00:55:16;3.47;;;3.17;;
4389;SDS011;2209;48.982;8.406;2023-02-28T00:57:40;3.60;;;3.40;;
4389;SDS011;2209;48.982;8.406;2023-02-28T01:00:02;3.97;;;3.60;;
4389;SDS011;2209;48.982;8.406;2023-02-28T01:02:25;7.77;;;3.40;;
4389;SDS011;2209;48.982;8.406;2023-02-28T01:04:47;5.77;;;3.30;;
4389;SDS011;2209;48.982;8.406;2023-02-28T01:07:09;4.67;;;3.43;;
4389;SDS011;2209;48.982;8.406;2023-02-28T01:09:31;4.07;;;3.73;;
4389;SDS011;2209;48.982;8.406;2023-02-28T01:11:53;3.80;;;3.50;;
4389;SDS011;2209;48.982;8.406;2023-02-28T01:14:17;3.97;;;3.67;;
4389;SDS011;2209;48.982;8.406;2023-02-28T01:16:39;3.67;;;3.43;;
4389;SDS011;2209;48.982;8.406;2023-02-28T01:19:01;3.27;;;3.07;;
4389;SDS011;2209;48.982;8.406;2023-02-28T01:21:23;3.97;;;3.50;;
4389;SDS011;2209;48.982;8.406;2023-02-28T01:23:46;3.40;;;3.10;;
4389;SDS011;2209;48.982;8.406;2023-02-28T01:26:10;3.37;;;3.07;;
4389;SDS011;2209;48.982;8.406;2023-02-28T01:28:34;3.10;;;2.90;;
4389;SDS011;2209;48.982;8.406;2023-02-28T01:30:57;3.70;;;3.40;;
4389;SDS011;2209;48.982;8.406;2023-02-28T01:33:19;4.27;;;3.87;;
4389;SDS011;2209;48.982;8.406;2023-02-28T01:35:41;3.93;;;3.63;;
4389;SDS011;2209;48.982;8.406;2023-02-28T01:38:03;7.40;;;3.80;;
4389;SDS011;2209;48.982;8.406;2023-02-28T01:40:25;3.90;;;3.50;;
4389;SDS011;2209;48.982;8.406;2023-02-28T01:42:47;3.93;;;3.50;;
4389;SDS011;2209;48.982;8.406;2023-02-28T01:45:18;5.13;;;4.10;;
4389;SDS011;2209;48.982;8.406;2023-02-28T01:47:45;3.33;;;3.13;;
4389;SDS011;2209;48.982;8.406;2023-02-28T01:50:11;5.70;;;3.73;;
4389;SDS011;2209;48.982;8.406;2023-02-28T01:52:35;6.27;;;3.87;;
4389;SDS011;2209;48.982;8.406;2023-02-28T01:54:59;3.70;;;3.30;;
4389;SDS011;2209;48.982;8.406;2023-02-28T01:57:23;3.80;;;3.13;;
4389;SDS011;2209;48.982;8.406;2023-02-28T01:59:50;3.87;;;3.57;;
4389;SDS011;2209;48.982;8.406;2023-02-28T02:02:20;3.80;;;3.40;;
4389;SDS011;2209;48.982;8.406;2023-02-28T02:04:46;3.87;;;3.57;;
4389;SDS011;2209;48.982;8.406;2023-02-28T02:07:12;3.70;;;3.43;;
4389;SDS011;2209;48.982;8.406;2023-02-28T02:09:35;3.97;;;3.70;;
4389;SDS011;2209;48.982;8.406;2023-02-28T02:11:57;4.80;;;3.80;;
4389;SDS011;2209;48.982;8.406;2023-02-28T02:14:31;4.20;;;3.60;;
4389;SDS011;2209;48.982;8.406;2023-02-28T02:17:08;11.43;;;4.07;;
4389;SDS011;2209;48.982;8.406;2023-02-28T02:19:57;4.00;;;3.60;;
4389;SDS011;2209;48.982;8.406;2023-02-28T02:25:42;4.10;;;3.73;;
4389;SDS011;2209;48.982;8.406;2023-02-28T02:37:02;4.03;;;3.60;;
4389;SDS011;2209;48.982;8.406;2023-02-28T02:39:31;7.70;;;4.50;;
4389;SDS011;2209;48.982;8.406;2023-02-28T02:42:00;3.80;;;3.50;;
4389;SDS011;2209;48.982;8.406;2023-02-28T02:44:26;6.00;;;4.10;;
4389;SDS011;2209;48.982;8.406;2023-02-28T02:46:52;7.03;;;3.50;;
4389;SDS011;2209;48.982;8.406;2023-02-28T02:49:18;3.67;;;3.37;;
4389;SDS011;2209;48.982;8.406;2023-02-28T02:51:44;4.83;;;4.40;;
4389;SDS011;2209;48.982;8.406;2023-02-28T02:54:10;5.33;;;4.63;;
4389;SDS011;2209;48.982;8.406;2023-02-28T02:56:36;4.73;;;4.33;;
4389;SDS011;2209;48.982;8.406;2023-02-28T02:59:02;4.83;;;4.43;;
4389;SDS011;2209;48.982;8.406;2023-02-28T03:01:26;5.00;;;3.87;;
4389;SDS011;2209;48.982;8.406;2023-02-28T03:03:50;5.60;;;3.60;;
4389;SDS011;2209;48.982;8.406;2023-02-28T03:06:12;4.57;;;4.03;;
4389;SDS011;2209;48.982;8.406;2023-02-28T03:08:37;4.23;;;3.83;;
4389;SDS011;2209;48.982;8.406;2023-02-28T03:11:00;4.13;;;3.83;;
4389;SDS011;2209;48.982;8.406;2023-02-28T03:13:35;4.73;;;4.10;;
4389;SDS011;2209;48.982;8.406;2023-02-28T03:16:08;4.30;;;3.93;;
4389;SDS011;2209;48.982;8.406;2023-02-28T03:18:53;4.83;;;4.37;;
4389;SDS011;2209;48.982;8.406;2023-02-28T03:21:23;5.00;;;4.10;;
4389;SDS011;2209;48.982;8.406;2023-02-28T03:23:53;4.90;;;4.50;;
4389;SDS011;2209;48.982;8.406;2023-02-28T03:26:20;4.83;;;4.10;;
4389;SDS011;2209;48.982;8.406;2023-02-28T03:28:48;5.10;;;4.70;;
4389;SDS011;2209;48.982;8.406;2023-02-28T03:31:16;4.60;;;4.20;;
4389;SDS011;2209;48.982;8.406;2023-02-28T03:33:42;5.30;;;4.90;;
4389;SDS011;2209;48.982;8.406;2023-02-28T03:36:16;4.70;;;4.30;;
4389;SDS011;2209;48.982;8.406;2023-02-28T03:38:42;4.63;;;3.83;;
4389;SDS011;2209;48.982;8.406;2023-02-28T03:41:10;4.63;;;4.20;;
4389;SDS011;2209;48.982;8.406;2023-02-28T03:43:38;5.20;;;4.33;;
4389;SDS011;2209;48.982;8.406;2023-02-28T03:46:04;3.90;;;3.60;;
4389;SDS011;2209;48.982;8.406;2023-02-28T03:48:31;4.67;;;4.27;;
4389;SDS011;2209;48.982;8.406;2023-02-28T03:50:58;4.40;;;4.00;;
4389;SDS011;2209;48.982;8.406;2023-02-28T03:53:25;4.30;;;3.90;;
4389;SDS011;2209;48.982;8.406;2023-02-28T03:55:50;4.43;;;3.90;;
4389;SDS011;2209;48.982;8.406;2023-02-28T03:58:18;5.10;;;4.57;;
4389;SDS011;2209;48.982;8.406;2023-02-28T04:00:47;7.87;;;4.77;;
4389;SDS011;2209;48.982;8.406;2023-02-28T04:03:16;4.47;;;4.13;;
4389;SDS011;2209;48.982;8.406;2023-02-28T04:05:50;6.40;;;4.77;;
4389;SDS011;2209;48.982;8.406;2023-02-28T04:08:14;4.83;;;4.30;;
4389;SDS011;2209;48.982;8.406;2023-02-28T04:10:36;5.70;;;4.33;;
4389;SDS011;2209;48.982;8.406;2023-02-28T04:12:58;7.53;;;4.67;;
4389;SDS011;2209;48.982;8.406;2023-02-28T04:15:22;4.93;;;4.50;;
4389;SDS011;2209;48.982;8.406;2023-02-28T04:17:45;5.87;;;5.00;;
4389;SDS011;2209;48.982;8.406;2023-02-28T04:20:07;4.67;;;4.27;;
4389;SDS011;2209;48.982;8.406;2023-02-28T04:22:30;5.20;;;4.60;;
4389;SDS011;2209;48.982;8.406;2023-02-28T04:24:52;5.10;;;4.63;;
4389;SDS011;2209;48.982;8.406;2023-02-28T04:27:15;8.27;;;5.00;;
4389;SDS011;2209;48.982;8.406;2023-02-28T04:29:37;5.23;;;4.73;;
4389;SDS011;2209;48.982;8.406;2023-02-28T04:32:00;6.10;;;5.00;;
4389;SDS011;2209;48.982;8.406;2023-02-28T04:34:23;11.90;;;4.93;;
4389;SDS011;2209;48.982;8.406;2023-02-28T04:36:45;8.20;;;4.80;;
4389;SDS011;2209;48.982;8.406;2023-02-28T04:39:09;5.87;;;4.90;;
4389;SDS011;2209;48.982;8.406;2023-02-28T04:41:31;6.87;;;5.40;;
4389;SDS011;2209;48.982;8.406;2023-02-28T04:43:53;5.53;;;5.00;;
4389;SDS011;2209;48.982;8.406;2023-02-28T04:46:16;5.40;;;5.00;;
4389;SDS011;2209;48.982;8.406;2023-02-28T04:48:40;8.50;;;5.80;;
4389;SDS011;2209;48.982;8.406;2023-02-28T04:51:04;7.20;;;5.30;;
4389;SDS011;2209;48.982;8.406;2023-02-28T04:53:28;4.87;;;4.40;;
4389;SDS011;2209;48.982;8.406;2023-02-28T04:55:50;5.77;;;4.80;;
4389;SDS011;2209;48.982;8.406;2023-02-28T04:58:12;6.30;;;5.70;;
4389;SDS011;2209;48.982;8.406;2023-02-28T05:00:34;4.70;;;4.30;;
4389;SDS011;2209;48.982;8.406;2023-02-28T05:02:57;5.00;;;4.60;;
4389;SDS011;2209;48.982;8.406;2023-02-28T05:05:20;5.83;;;5.20;;
4389;SDS011;2209;48.982;8.406;2023-02-28T05:07:45;6.43;;;5.83;;
4389;SDS011;2209;48.982;8.406;2023-02-28T05:10:08;5.70;;;5.10;;
4389;SDS011;2209;48.982;8.406;2023-02-28T05:12:33;5.53;;;4.97;;
4389;SDS011;2209;48.982;8.406;2023-02-28T05:14:55;6.00;;;5.43;;
4389;SDS011;2209;48.982;8.406;2023-02-28T05:17:17;5.70;;;5.20;;
4389;SDS011;2209;48.982;8.406;2023-02-28T05:19:40;5.50;;;5.00;;
4389;SDS011;2209;48.982;8.406;2023-02-28T05:22:04;5.20;;;4.70;;
4389;SDS011;2209;48.982;8.406;2023-02-28T05:24:26;7.80;;;5.37;;
4389;SDS011;2209;48.982;8.406;2023-02-28T05:26:48;6.87;;;5.30;;
4389;SDS011;2209;48.982;8.406;2023-02-28T05:29:13;5.77;;;5.27;;
4389;SDS011;2209;48.982;8.406;2023-02-28T05:31:35;6.10;;;5.50;;
4389;SDS011;2209;48.982;8.406;2023-02-28T05:33:58;5.97;;;5.37;;
4389;SDS011;2209;48.982;8.406;2023-02-28T05:36:20;5.80;;;5.17;;
4389;SDS011;2209;48.982;8.406;2023-02-28T05:38:43;6.20;;;5.37;;
4389;SDS011;2209;48.982;8.406;2023-02-28T05:41:07;7.77;;;6.27;;
4389;SDS011;2209;48.982;8.406;2023-02-28T05:43:30;6.30;;;5.60;;
4389;SDS011;2209;48.982;8.406;2023-02-28T05:45:52;8.33;;;6.10;;
4389;SDS011;2209;48.982;8.406;2023-02-28T05:48:14;6.77;;;6.07;;
4389;SDS011;2209;48.982;8.406;2023-02-28T05:50:37;6.63;;;5.50;;
4389;SDS011;2209;48.982;8.406;2023-02-28T05:52:59;6.33;;;5.70;;
4389;SDS011;2209;48.982;8.406;2023-02-28T05:55:24;7.03;;;5.77;;
4389;SDS011;2209;48.982;8.406;2023-02-28T05:57:46;7.27;;;6.20;;
4389;SDS011;2209;48.982;8.406;2023-02-28T06:00:08;6.03;;;5.43;;
4389;SDS011;2209;48.982;8.406;2023-02-28T06:02:31;6.97;;;6.20;;
4389;SDS011;2209;48.982;8.406;2023-02-28T06:04:53;7.20;;;6.47;;
4389;SDS011;2209;48.982;8.406;2023-02-28T06:07:16;6.90;;;5.77;;
4389;SDS011;2209;48.982;8.406;2023-02-28T06:09:38;8.47;;;6.13;;
4389;SDS011;2209;48.982;8.406;2023-02-28T06:12:02;6.63;;;5.83;;
4389;SDS011;2209;48.982;8.406;2023-02-28T06:14:27;8.57;;;6.20;;
4389;SDS011;2209;48.982;8.406;2023-02-28T06:16:51;11.80;;;5.80;;
4389;SDS011;2209;48.982;8.406;2023-02-28T06:19:13;7.50;;;5.73;;
4389;SDS011;2209;48.982;8.406;2023-02-28T06:21:36;8.37;;;5.73;;
4389;SDS011;2209;48.982;8.406;2023-02-28T06:23:58;5.80;;;5.27;;
4389;SDS011;2209;48.982;8.406;2023-02-28T06:26:20;6.50;;;5.33;;
4389;SDS011;2209;48.982;8.406;2023-02-28T06:28:44;5.97;;;5.43;;
4389;SDS011;2209;48.982;8.406;2023-02-28T06:31:12;6.83;;;6.13;;
4389;SDS011;2209;48.982;8.406;2023-02-28T06:33:36;7.00;;;6.27;;
4389;SDS011;2209;48.982;8.406;2023-02-28T06:35:59;6.10;;;5.47;;
4389;SDS011;2209;48.982;8.406;2023-02-28T06:38:21;7.13;;;6.20;;
4389;SDS011;2209;48.982;8.406;2023-02-28T06:40:43;6.33;;;5.83;;
4389;SDS011;2209;48.982;8.406;2023-02-28T06:43:06;7.77;;;6.10;;
4389;SDS011;2209;48.982;8.406;2023-02-28T06:45:32;6.97;;;5.57;;
4389;SDS011;2209;48.982;8.406;2023-02-28T06:47:54;6.10;;;5.47;;
4389;SDS011;2209;48.982;8.406;2023-02-28T06:50:16;6.80;;;6.20;;
4389;SDS011;2209;48.982;8.406;2023-02-28T06:52:40;9.30;;;7.37;;
4389;SDS011;2209;48.982;8.406;2023-02-28T06:55:03;8.47;;;6.20;;
4389;SDS011;2209;48.982;8.406;2023-02-28T06:57:27;5.87;;;5.37;;
4389;SDS011;2209;48.982;8.406;2023-02-28T06:59:52;10.50;;;5.90;;
4389;SDS011;2209;48.982;8.406;2023-02-28T07:02:15;7.00;;;5.40;;
4389;SDS011;2209;48.982;8.406;2023-02-28T07:04:37;8.40;;;6.03;;
4389;SDS011;2209;48.982;8.406;2023-02-28T07:07:00;6.63;;;6.03;;
4389;SDS011;2209;48.982;8.406;2023-02-28T07:09:23;7.80;;;6.07;;
4389;SDS011;2209;48.982;8.406;2023-02-28T07:11:50;6.50;;;5.23;;
4389;SDS011;2209;48.982;8.406;2023-02-28T07:14:12;6.43;;;5.83;;
4389;SDS011;2209;48.982;8.406;2023-02-28T07:16:34;5.90;;;5.30;;
4389;SDS011;2209;48.982;8.406;2023-02-28T07:18:58;8.27;;;6.70;;
4389;SDS011;2209;48.982;8.406;2023-02-28T07:21:20;7.17;;;6.47;;
4389;SDS011;2209;48.982;8.406;2023-02-28T07:23:42;6.17;;;5.57;;
4389;SDS011;2209;48.982;8.406;2023-02-28T07:26:05;8.33;;;6.03;;
4389;SDS011;2209;48.982;8.406;2023-02-28T07:28:27;6.80;;;6.13;;
4389;SDS011;2209;48.982;8.406;2023-02-28T07:30:50;6.60;;;5.50;;
4389;SDS011;2209;48.982;8.406;2023-02-28T07:33:12;6.50;;;5.90;;
4389;SDS011;2209;48.982;8.406;2023-02-28T07:35:35;7.23;;;6.00;;
4389;SDS011;2209;48.982;8.406;2023-02-28T07:37:58;8.77;;;5.90;;
4389;SDS011;2209;48.982;8.406;2023-02-28T07:40:20;6.70;;;5.30;;
4389;SDS011;2209;48.982;8.406;2023-02-28T07:42:42;8.30;;;7.50;;
4389;SDS011;2209;48.982;8.406;2023-02-28T07:45:05;9.00;;;7.27;;
4389;SDS011;2209;48.982;8.406;2023-02-28T07:47:28;7.40;;;6.50;;
4389;SDS011;2209;48.982;8.406;2023-02-28T07:49:51;6.40;;;5.80;;
4389;SDS011;2209;48.982;8.406;2023-02-28T07:52:14;7.80;;;7.10;;
4389;SDS011;2209;48.982;8.406;2023-02-28T07:54:36;10.30;;;6.27;;
4389;SDS011;2209;48.982;8.406;2023-02-28T07:56:58;10.70;;;6.47;;
4389;SDS011;2209;48.982;8.406;2023-02-28T07:59:20;9.10;;;7.17;;
4389;SDS011;2209;48.982;8.406;2023-02-28T08:01:42;8.53;;;7.23;;
4389;SDS011;2209;48.982;8.406;2023-02-28T08:04:05;9.80;;;6.87;;
4389;SDS011;2209;48.982;8.406;2023-02-28T08:06:27;8.10;;;6.43;;
4389;SDS011;2209;48.982;8.406;2023-02-28T08:08:50;7.93;;;6.23;;
4389;SDS011;2209;48.982;8.406;2023-02-28T08:11:12;6.93;;;6.33;;
4389;SDS011;2209;48.982;8.406;2023-02-28T08:13:35;6.80;;;6.07;;
4389;SDS011;2209;48.982;8.406;2023-02-28T08:15:57;9.30;;;7.13;;
4389;SDS011;2209;48.982;8.406;2023-02-28T08:18:19;6.90;;;5.83;;
4389;SDS011;2209;48.982;8.406;2023-02-28T08:20:41;8.60;;;7.70;;
4389;SDS011;2209;48.982;8.406;2023-02-28T08:23:03;7.53;;;6.73;;
4389;SDS011;2209;48.982;8.406;2023-02-28T08:25:27;12.13;;;6.93;;
4389;SDS011;2209;48.982;8.406;2023-02-28T08:27:50;9.30;;;7.00;;
4389;SDS011;2209;48.982;8.406;2023-02-28T08:30:13;7.43;;;6.67;;
4389;SDS011;2209;48.982;8.406;2023-02-28T08:32:37;7.20;;;6.03;;
4389;SDS011;2209;48.982;8.406;2023-02-28T08:35:00;6.23;;;5.73;;
4389;SDS011;2209;48.982;8.406;2023-02-28T08:37:23;8.30;;;7.17;;
4389;SDS011;2209;48.982;8.406;2023-02-28T08:39:45;7.80;;;7.07;;
4389;SDS011;2209;48.982;8.406;2023-02-28T08:42:09;8.83;;;7.40;;
4389;SDS011;2209;48.982;8.406;2023-02-28T08:44:32;11.47;;;7.80;;
4389;SDS011;2209;48.982;8.406;2023-02-28T08:46:54;7.83;;;7.03;;
4389;SDS011;2209;48.982;8.406;2023-02-28T08:49:16;11.93;;;7.37;;
4389;SDS011;2209;48.982;8.406;2023-02-28T08:51:39;10.03;;;7.80;;
4389;SDS011;2209;48.982;8.406;2023-02-28T08:54:01;13.03;;;7.87;;
4389;SDS011;2209;48.982;8.406;2023-02-28T08:56:23;7.97;;;6.77;;
4389;SDS011;2209;48.982;8.406;2023-02-28T08:58:47;7.03;;;6.07;;
4389;SDS011;2209;48.982;8.406;2023-02-28T09:01:11;7.40;;;6.70;;
4389;SDS011;2209;48.982;8.406;2023-02-28T09:03:34;7.33;;;6.73;;
4389;SDS011;2209;48.982;8.406;2023-02-28T09:05:57;9.40;;;7.83;;
4389;SDS011;2209;48.982;8.406;2023-02-28T09:08:20;8.33;;;7.47;;
4389;SDS011;2209;48.982;8.406;2023-02-28T09:10:42;8.43;;;7.43;;
4389;SDS011;2209;48.982;8.406;2023-02-28T09:13:05;8.10;;;7.30;;
4389;SDS011;2209;48.982;8.406;2023-02-28T09:15:29;12.40;;;8.87;;
4389;SDS011;2209;48.982;8.406;2023-02-28T09:17:51;9.43;;;8.27;;
4389;SDS011;2209;48.982;8.406;2023-02-28T09:20:13;9.87;;;7.83;;
4389;SDS011;2209;48.982;8.406;2023-02-28T09:22:35;11.37;;;8.33;;
4389;SDS011;2209;48.982;8.406;2023-02-28T09:24:57;10.80;;;8.10;;
4389;SDS011;2209;48.982;8.406;2023-02-28T09:27:19;8.40;;;7.50;;
4389;SDS011;2209;48.982;8.406;2023-02-28T09:29:41;8.93;;;7.70;;
4389;SDS011;2209;48.982;8.406;2023-02-28T09:32:05;8.27;;;7.40;;
4389;SDS011;2209;48.982;8.406;2023-02-28T09:34:27;8.27;;;7.50;;
4389;SDS011;2209;48.982;8.406;2023-02-28T09:36:51;11.00;;;8.50;;
4389;SDS011;2209;48.982;8.406;2023-02-28T09:39:15;8.80;;;7.80;;
4389;SDS011;2209;48.982;8.406;2023-02-28T09:41:38;9.23;;;8.00;;
4389;SDS011;2209;48.982;8.406;2023-02-28T09:44:07;9.33;;;7.80;;
4389;SDS011;2209;48.982;8.406;2023-02-28T09:46:42;9.00;;;8.10;;
4389;SDS011;2209;48.982;8.406;2023-02-28T09:49:11;10.70;;;7.70;;
4389;SDS011;2209;48.982;8.406;2023-02-28T09:51:40;9.10;;;8.20;;
4389;SDS011;2209;48.982;8.406;2023-02-28T09:54:10;13.73;;;9.00;;
4389;SDS011;2209;48.982;8.406;2023-02-28T09:56:39;15.10;;;8.43;;
4389;SDS011;2209;48.982;8.406;2023-02-28T09:59:04;11.23;;;8.40;;
4389;SDS011;2209;48.982;8.406;2023-02-28T10:01:37;10.67;;;7.57;;
4389;SDS011;2209;48.982;8.406;2023-02-28T10:04:04;11.87;;;8.63;;
4389;SDS011;2209;48.982;8.406;2023-02-28T10:06:35;11.40;;;9.23;;
4389;SDS011;2209;48.982;8.406;2023-02-28T10:09:03;12.40;;;8.93;;
4389;SDS011;2209;48.982;8.406;2023-02-28T10:11:29;9.57;;;8.20;;
4389;SDS011;2209;48.982;8.406;2023-02-28T10:13:56;13.70;;;8.77;;
4389;SDS011;2209;48.982;8.406;2023-02-28T10:16:25;10.37;;;9.30;;
4389;SDS011;2209;48.982;8.406;2023-02-28T10:18:54;15.07;;;8.70;;
4389;SDS011;2209;48.982;8.406;2023-02-28T10:21:20;10.13;;;9.03;;
4389;SDS011;2209;48.982;8.406;2023-02-28T10:23:49;9.63;;;8.50;;
4389;SDS011;2209;48.982;8.406;2023-02-28T10:26:16;10.90;;;9.33;;
4389;SDS011;2209;48.982;8.406;2023-02-28T10:28:38;10.33;;;9.07;;
4389;SDS011;2209;48.982;8.406;2023-02-28T10:31:01;12.20;;;8.73;;
4389;SDS011;2209;48.982;8.406;2023-02-28T10:33:25;11.67;;;8.77;;
4389;SDS011;2209;48.982;8.406;2023-02-28T10:35:50;10.40;;;8.10;;
4389;SDS011;2209;48.982;8.406;2023-02-28T10:38:15;15.63;;;9.70;;
4389;SDS011;2209;48.982;8.406;2023-02-28T10:40:41;12.80;;;8.80;;
4389;SDS011;2209;48.982;8.406;2023-02-28T10:43:04;11.73;;;9.50;;
4389;SDS011;2209;48.982;8.406;2023-02-28T10:45:39;9.07;;;8.23;;
4389;SDS011;2209;48.982;8.406;2023-02-28T10:48:26;14.57;;;9.40;;
4389;SDS011;2209;48.982;8.406;2023-02-28T10:50:51;12.93;;;9.33;;
4389;SDS011;2209;48.982;8.406;2023-02-28T10:53:23;10.43;;;9.10;;
4389;SDS011;2209;48.982;8.406;2023-02-28T10:55:57;10.40;;;8.87;;
4389;SDS011;2209;48.982;8.406;2023-02-28T10:58:21;10.60;;;8.83;;
4389;SDS011;2209;48.982;8.406;2023-02-28T11:00:44;12.53;;;9.17;;
4389;SDS011;2209;48.982;8.406;2023-02-28T11:03:11;13.63;;;9.07;;
4389;SDS011;2209;48.982;8.406;2023-02-28T11:05:47;12.13;;;9.40;;
4389;SDS011;2209;48.982;8.406;2023-02-28T11:08:10;13.70;;;10.50;;
4389;SDS011;2209;48.982;8.406;2023-02-28T11:10:35;12.57;;;9.33;;
4389;SDS011;2209;48.982;8.406;2023-02-28T11:13:03;11.67;;;9.57;;
4389;SDS011;2209;48.982;8.406;2023-02-28T11:15:27;11.20;;;9.27;;
4389;SDS011;2209;48.982;8.406;2023-02-28T11:17:54;11.43;;;8.57;;
4389;SDS011;2209;48.982;8.406;2023-02-28T11:20:18;12.07;;;9.37;;
4389;SDS011;2209;48.982;8.406;2023-02-28T11:22:44;10.50;;;9.27;;
4389;SDS011;2209;48.982;8.406;2023-02-28T11:25:09;11.83;;;9.30;;
4389;SDS011;2209;48.982;8.406;2023-02-28T11:27:42;12.13;;;8.20;;
4389;SDS011;2209;48.982;8.406;2023-02-28T11:32:52;11.70;;;10.27;;
4389;SDS011;2209;48.982;8.406;2023-02-28T11:35:15;15.67;;;11.20;;
4389;SDS011;2209;48.982;8.406;2023-02-28T11:37:42;13.13;;;10.80;;
4389;SDS011;2209;48.982;8.406;2023-02-28T11:40:08;13.17;;;9.00;;
4389;SDS011;2209;48.982;8.406;2023-02-28T11:42:38;10.73;;;9.73;;
4389;SDS011;2209;48.982;8.406;2023-02-28T11:45:12;9.73;;;8.30;;
4389;SDS011;2209;48.982;8.406;2023-02-28T11:47:44;14.30;;;10.00;;
4389;SDS011;2209;48.982;8.406;2023-02-28T11:50:16;9.83;;;8.80;;
4389;SDS011;2209;48.982;8.406;2023-02-28T11:52:48;11.30;;;9.70;;
4389;SDS011;2209;48.982;8.406;2023-02-28T11:55:16;12.57;;;9.90;;
4389;SDS011;2209;48.982;8.406;2023-02-28T11:57:49;12.53;;;10.00;;
4389;SDS011;2209;48.982;8.406;2023-02-28T12:00:38;13.57;;;10.47;;
4389;SDS011;2209;48.982;8.406;2023-02-28T12:03:09;10.63;;;9.53;;
4389;SDS011;2209;48.982;8.406;2023-02-28T12:05:39;12.10;;;9.93;;
4389;SDS011;2209;48.982;8.406;2023-02-28T12:08:09;13.00;;;10.40;;
4389;SDS011;2209;48.982;8.406;2023-02-28T12:10:44;10.97;;;9.20;;
4389;SDS011;2209;48.982;8.406;2023-02-28T12:13:20;14.33;;;9.37;;
4389;SDS011;2209;48.982;8.406;2023-02-28T12:15:54;13.37;;;10.17;;
4389;SDS011;2209;48.982;8.406;2023-02-28T12:18:39;13.10;;;11.53;;
4389;SDS011;2209;48.982;8.406;2023-02-28T12:21:14;12.03;;;10.40;;
4389;SDS011;2209;48.982;8.406;2023-02-28T12:23:54;11.37;;;9.37;;
4389;SDS011;2209;48.982;8.406;2023-02-28T12:26:36;11.20;;;9.10;;
4389;SDS011;2209;48.982;8.406;2023-02-28T12:29:01;10.93;;;9.73;;
4389;SDS011;2209;48.982;8.406;2023-02-28T12:31:31;10.60;;;9.50;;
4389;SDS011;2209;48.982;8.406;2023-02-28T12:34:00;14.20;;;10.20;;
4389;SDS011;2209;48.982;8.406;2023-02-28T12:36:27;11.60;;;10.40;;
4389;SDS011;2209;48.982;8.406;2023-02-28T12:38:51;11.40;;;9.90;;
4389;SDS011;2209;48.982;8.406;2023-02-28T12:41:17;12.37;;;9.90;;
4389;SDS011;2209;48.982;8.406;2023-02-28T12:43:44;15.63;;;10.53;;
4389;SDS011;2209;48.982;8.406;2023-02-28T12:46:10;14.13;;;10.83;;
4389;SDS011;2209;48.982;8.406;2023-02-28T12:48:39;13.00;;;10.20;;
4389;SDS011;2209;48.982;8.406;2023-02-28T12:51:05;12.80;;;10.60;;
4389;SDS011;2209;48.982;8.406;2023-02-28T12:53:30;11.47;;;9.60;;
4389;SDS011;2209;48.982;8.406;2023-02-28T12:56:03;11.90;;;10.23;;
4389;SDS011;2209;48.982;8.406;2023-02-28T12:58:36;12.83;;;10.40;;
4389;SDS011;2209;48.982;8.406;2023-02-28T13:01:05;11.47;;;10.23;;
4389;SDS011;2209;48.982;8.406;2023-02-28T13:04:01;10.90;;;9.80;;
4389;SDS011;2209;48.982;8.406;2023-02-28T13:06:49;12.10;;;8.30;;
4389;SDS011;2209;48.982;8.406;2023-02-28T13:09:21;11.53;;;10.30;;
4389;SDS011;2209;48.982;8.406;2023-02-28T13:11:44;13.87;;;10.93;;
4389;SDS011;2209;48.982;8.406;2023-02-28T13:14:16;11.10;;;10.00;;
4389;SDS011;2209;48.982;8.406;2023-02-28T13:16:55;14.00;;;10.60;;
4389;SDS011;2209;48.982;8.406;2023-02-28T13:19:24;11.60;;;9.80;;
4389;SDS011;2209;48.982;8.406;2023-02-28T13:21:50;11.67;;;10.27;;
4389;SDS011;2209;48.982;8.406;2023-02-28T13:24:14;11.17;;;9.93;;
4389;SDS011;2209;48.982;8.406;2023-02-28T13:29:55;12.00;;;9.80;;
4389;SDS011;2209;48.982;8.406;2023-02-28T13:41:10;11.73;;;10.17;;
4389;SDS011;2209;48.982;8.406;2023-02-28T13:44:03;11.57;;;10.37;;
4389;SDS011;2209;48.982;8.406;2023-02-28T13:46:26;11.60;;;9.97;;
4389;SDS011;2209;48.982;8.406;2023-02-28T13:48:48;12.53;;;10.40;;
4389;SDS011;2209;48.982;8.406;2023-02-28T13:54:01;11.43;;;10.00;;
4389;SDS011;2209;48.982;8.406;2023-02-28T13:56:35;14.10;;;11.10;;
4389;SDS011;2209;48.982;8.406;2023-02-28T13:59:12;12.47;;;10.73;;
4389;SDS011;2209;48.982;8.406;2023-02-28T14:01:46;12.00;;;10.23;;
4389;SDS011;2209;48.982;8.406;2023-02-28T14:04:42;13.07;;;11.10;;
4389;SDS011;2209;48.982;8.406;2023-02-28T14:07:15;13.43;;;11.23;;
4389;SDS011;2209;48.982;8.406;2023-02-28T14:09:41;12.20;;;10.10;;
4389;SDS011;2209;48.982;8.406;2023-02-28T14:17:38;13.43;;;10.20;;
4389;SDS011;2209;48.982;8.406;2023-02-28T14:20:02;15.80;;;11.23;;
4389;SDS011;2209;48.982;8.406;2023-02-28T14:22:34;14.70;;;11.40;;
4389;SDS011;2209;48.982;8.406;2023-02-28T14:25:12;14.83;;;13.03;;
4389;SDS011;2209;48.982;8.406;2023-02-28T14:27:45;12.67;;;11.43;;
4389;SDS011;2209;48.982;8.406;2023-02-28T14:30:24;13.03;;;10.97;;
4389;SDS011;2209;48.982;8.406;2023-02-28T14:33:10;11.33;;;10.13;;
4389;SDS011;2209;48.982;8.406;2023-02-28T14:35:49;13.23;;;11.83;;
4389;SDS011;2209;48.982;8.406;2023-02-28T14:38:23;12.20;;;10.90;;
4389;SDS011;2209;48.982;8.406;2023-02-28T14:40:49;11.83;;;10.63;;
4389;SDS011;2209;48.982;8.406;2023-02-28T14:43:18;15.40;;;10.43;;
4389;SDS011;2209;48.982;8.406;2023-02-28T14:45:42;13.50;;;11.47;;
4389;SDS011;2209;48.982;8.406;2023-02-28T14:48:08;13.07;;;11.27;;
4389;SDS011;2209;48.982;8.406;2023-02-28T14:50:31;13.17;;;10.93;;
4389;SDS011;2209;48.982;8.406;2023-02-28T14:52:56;10.90;;;9.80;;
4389;SDS011;2209;48.982;8.406;2023-02-28T14:55:19;12.43;;;10.80;;
4389;SDS011;2209;48.982;8.406;2023-02-28T14:57:53;13.30;;;10.87;;
4389;SDS011;2209;48.982;8.406;2023-02-28T15:00:22;13.03;;;11.63;;
4389;SDS011;2209;48.982;8.406;2023-02-28T15:02:46;12.10;;;10.90;;
4389;SDS011;2209;48.982;8.406;2023-02-28T15:05:19;12.80;;;11.50;;
4389;SDS011;2209;48.982;8.406;2023-02-28T15:07:45;12.63;;;11.33;;
4389;SDS011;2209;48.982;8.406;2023-02-28T15:10:13;13.80;;;11.60;;
4389;SDS011;2209;48.982;8.406;2023-02-28T15:12:39;12.03;;;10.60;;
4389;SDS011;2209;48.982;8.406;2023-02-28T15:15:03;14.27;;;11.33;;
4389;SDS011;2209;48.982;8.406;2023-02-28T15:17:27;12.33;;;11.03;;
4389;SDS011;2209;48.982;8.406;2023-02-28T15:19:50;12.50;;;10.60;;
4389;SDS011;2209;48.982;8.406;2023-02-28T15:22:17;13.27;;;10.90;;
4389;SDS011;2209;48.982;8.406;2023-02-28T15:24:46;12.30;;;10.63;;
4389;SDS011;2209;48.982;8.406;2023-02-28T15:27:11;12.77;;;10.67;;
4389;SDS011;2209;48.982;8.406;2023-02-28T15:29:44;13.63;;;12.07;;
4389;SDS011;2209;48.982;8.406;2023-02-28T15:32:19;11.70;;;10.60;;
4389;SDS011;2209;48.982;8.406;2023-02-28T15:34:46;11.47;;;10.20;;